createdAt,value
2018-03-16T00:04:19.267Z,20.27
2018-03-16T00:09:21.825Z,17.60
2018-03-16T00:14:24.422Z,19.83
2018-03-16T00:19:26.981Z,21.90
2018-03-16T00:24:29.576Z,16.70
2018-03-16T00:29:32.130Z,17.70
2018-03-16T00:34:34.696Z,16.63
2018-03-16T00:39:37.275Z,20.50
2018-03-16T00:44:39.859Z,17.83
2018-03-16T00:49:42.604Z,16.77
2018-03-16T00:54:45.170Z,19.57
2018-03-16T00:59:47.975Z,14.67
2018-03-16T01:04:50.534Z,17.60
2018-03-16T01:09:53.090Z,14.17
2018-03-16T01:14:55.636Z,17.07
2018-03-16T01:19:58.206Z,20.33
2018-03-16T01:25:00.774Z,16.93
2018-03-16T01:30:04.110Z,14.20
2018-03-16T01:35:06.691Z,16.43
2018-03-16T01:40:09.254Z,19.40
2018-03-16T01:45:11.824Z,19.67
2018-03-16T01:50:14.412Z,19.10
2018-03-16T01:55:16.970Z,14.90
2018-03-16T02:00:19.534Z,20.63
2018-03-16T02:05:22.100Z,23.13
2018-03-16T02:10:24.714Z,26.80
2018-03-16T02:15:27.290Z,19.47
2018-03-16T02:20:32.325Z,21.53
2018-03-16T02:25:34.917Z,18.53
2018-03-16T02:30:37.483Z,24.20
2018-03-16T02:35:40.060Z,19.00
2018-03-16T02:40:42.630Z,19.33
2018-03-16T02:45:45.552Z,18.20
2018-03-16T02:50:48.108Z,21.40
2018-03-16T02:55:50.681Z,20.13
2018-03-16T03:00:53.261Z,32.47
2018-03-16T03:05:56.582Z,24.60
2018-03-16T03:10:59.966Z,34.23
2018-03-16T03:16:02.526Z,22.27
2018-03-16T03:21:05.069Z,20.00
2018-03-16T03:26:07.647Z,21.57
2018-03-16T03:31:10.211Z,20.07
2018-03-16T03:36:12.777Z,21.03
2018-03-16T03:41:15.351Z,23.90
2018-03-16T03:46:17.910Z,22.70
2018-03-16T03:51:21.237Z,21.13
2018-03-16T03:56:23.786Z,21.00
2018-03-16T04:01:26.337Z,21.40
2018-03-16T04:06:28.910Z,22.67
2018-03-16T04:11:32.222Z,31.27
2018-03-16T04:16:35.540Z,25.60
2018-03-16T04:21:38.194Z,25.20
2018-03-16T04:26:40.737Z,19.10
2018-03-16T04:31:43.298Z,19.63
2018-03-16T04:36:45.968Z,22.33
2018-03-16T04:41:48.586Z,22.83
2018-03-16T04:46:51.147Z,25.07
2018-03-16T04:51:54.481Z,22.00
2018-03-16T04:56:57.066Z,22.07
2018-03-16T05:01:59.623Z,20.20
2018-03-16T05:07:02.187Z,29.07
2018-03-16T05:12:04.838Z,21.23
2018-03-16T05:17:07.406Z,76.07
2018-03-16T05:22:09.963Z,22.83
2018-03-16T05:27:13.284Z,25.93
2018-03-16T05:32:16.615Z,30.30
2018-03-16T05:37:19.199Z,21.23
2018-03-16T05:42:21.769Z,26.13
2018-03-16T05:47:24.550Z,24.43
2018-03-16T05:52:27.119Z,34.23
2018-03-16T05:57:29.690Z,22.50
2018-03-16T06:02:33.057Z,21.23
2018-03-16T06:07:35.602Z,24.40
2018-03-16T06:12:38.150Z,28.57
2018-03-16T06:17:40.702Z,24.37
2018-03-16T06:22:43.252Z,26.80
2018-03-16T06:27:46.155Z,27.73
2018-03-16T06:32:48.712Z,27.63
2018-03-16T06:37:51.258Z,33.23
2018-03-16T06:42:53.818Z,26.77
2018-03-16T06:47:56.386Z,28.73
2018-03-16T06:52:58.929Z,27.80
2018-03-16T06:58:01.864Z,30.10
2018-03-16T07:03:04.442Z,34.53
2018-03-16T07:08:07.754Z,30.60
2018-03-16T07:13:10.302Z,30.07
2018-03-16T07:18:12.849Z,34.70
2018-03-16T07:23:15.460Z,26.30
2018-03-16T07:28:17.973Z,35.13
2018-03-16T07:33:21.281Z,25.17
2018-03-16T07:38:23.845Z,33.27
2018-03-16T07:43:26.408Z,35.10
2018-03-16T07:48:29.614Z,37.70
2018-03-16T07:53:32.206Z,33.10
2018-03-16T07:58:34.981Z,41.50
2018-03-16T08:03:37.533Z,33.40
2018-03-16T08:08:40.089Z,41.67
2018-03-16T08:13:42.747Z,42.93
2018-03-16T08:18:45.312Z,36.30
2018-03-16T08:23:47.856Z,31.87
2018-03-16T08:28:50.571Z,38.50
2018-03-16T08:33:53.941Z,38.30
2018-03-16T08:38:56.490Z,35.80
2018-03-16T08:43:59.040Z,32.77
2018-03-16T08:49:01.619Z,33.97
2018-03-16T08:54:04.138Z,31.93
2018-03-16T08:59:06.721Z,34.37
2018-03-16T09:04:09.386Z,30.10
2018-03-16T09:09:11.942Z,26.60
2018-03-16T09:14:14.968Z,24.77
2018-03-16T09:19:17.526Z,22.30
2018-03-16T09:24:20.858Z,26.87
2018-03-16T09:29:23.430Z,20.10
2018-03-16T09:34:26.760Z,20.63
2018-03-16T09:39:30.084Z,21.10
2018-03-16T09:44:32.779Z,30.53
2018-03-16T09:49:35.350Z,24.50
2018-03-16T09:54:49.876Z,24.57
2018-03-16T09:59:52.459Z,22.23
2018-03-16T10:04:55.813Z,24.60
2018-03-16T10:09:58.382Z,23.60
2018-03-16T10:15:01.458Z,21.47
2018-03-16T10:20:04.026Z,21.63
2018-03-16T10:25:06.595Z,24.90
2018-03-16T10:30:09.153Z,24.87
2018-03-16T10:35:11.710Z,20.17
2018-03-16T10:40:14.262Z,16.50
2018-03-16T10:45:16.828Z,21.20
2018-03-16T10:50:19.394Z,15.20
2018-03-16T10:55:22.034Z,18.60
2018-03-16T11:00:30.234Z,20.07
2018-03-16T11:05:32.799Z,18.97
2018-03-16T11:10:35.344Z,18.47
2018-03-16T11:15:37.890Z,8.03
2018-03-16T11:20:40.426Z,5.50
2018-03-16T11:25:42.978Z,4.20
2018-03-16T11:30:45.514Z,3.60
2018-03-16T11:35:49.648Z,3.37
2018-03-16T11:40:52.976Z,3.03
2018-03-16T11:45:55.545Z,2.83
2018-03-16T11:50:58.273Z,3.77
2018-03-16T11:56:00.901Z,3.07
2018-03-16T12:01:03.463Z,3.20
2018-03-16T12:06:06.032Z,4.00
2018-03-16T12:11:09.332Z,2.60
2018-03-16T12:16:11.895Z,3.53
2018-03-16T12:21:14.445Z,5.90
2018-03-16T12:26:16.998Z,2.63
2018-03-16T12:31:19.576Z,3.17
2018-03-16T12:36:22.103Z,2.23
2018-03-16T12:41:24.665Z,3.57
2018-03-16T12:46:27.202Z,2.90
2018-03-16T12:51:30.233Z,3.40
2018-03-16T12:56:32.737Z,2.57
2018-03-16T13:01:35.293Z,2.73
2018-03-16T13:06:38.126Z,3.07
2018-03-16T13:11:40.690Z,3.17
2018-03-16T13:16:43.238Z,2.70
2018-03-16T13:21:45.789Z,2.33
2018-03-16T13:26:48.340Z,3.20
2018-03-16T13:31:50.891Z,3.27
2018-03-16T13:36:53.653Z,2.57
2018-03-16T13:41:56.201Z,2.73
2018-03-16T13:46:58.766Z,3.13
2018-03-16T13:52:01.309Z,3.33
2018-03-16T13:57:03.856Z,3.03
2018-03-16T14:02:06.435Z,5.33
2018-03-16T14:07:08.994Z,4.90
2018-03-16T14:12:12.316Z,3.87
2018-03-16T14:17:15.646Z,6.23
2018-03-16T14:22:18.465Z,5.10
2018-03-16T14:27:21.001Z,2.10
2018-03-16T14:32:23.631Z,1.63
2018-03-16T14:37:26.991Z,4.40
2018-03-16T14:42:29.547Z,2.93
2018-03-16T14:47:32.099Z,2.13
2018-03-16T14:52:34.942Z,3.63
2018-03-16T14:57:37.473Z,2.70
2018-03-16T15:02:40.024Z,1.80
2018-03-16T15:07:42.557Z,1.17
2018-03-16T15:12:45.102Z,1.10
2018-03-16T15:17:47.651Z,1.50
2018-03-16T15:22:51.282Z,1.03
2018-03-16T15:27:53.873Z,0.93
2018-03-16T15:32:56.429Z,0.67
2018-03-16T15:37:58.970Z,0.70
2018-03-16T15:43:01.515Z,1.93
2018-03-16T15:48:04.087Z,1.80
2018-03-16T15:53:07.425Z,0.93
2018-03-16T15:58:09.990Z,1.37
2018-03-16T16:03:12.907Z,0.97
2018-03-16T16:08:17.255Z,2.00
2018-03-16T16:13:19.818Z,2.80
2018-03-16T16:18:22.399Z,0.90
2018-03-16T16:23:24.996Z,1.57
2018-03-16T16:28:27.541Z,5.30
2018-03-16T16:33:30.118Z,1.90
2018-03-16T16:38:32.702Z,4.17
2018-03-16T16:43:36.102Z,2.53
2018-03-16T16:48:38.655Z,3.27
2018-03-16T16:53:41.256Z,1.83
2018-03-16T16:58:43.907Z,1.73
2018-03-16T17:03:46.465Z,1.67
2018-03-16T17:08:49.019Z,3.50
2018-03-16T17:13:51.983Z,3.07
2018-03-16T17:18:54.541Z,3.23
2018-03-16T17:23:57.095Z,1.70
2018-03-16T17:29:00.429Z,2.23
2018-03-16T17:34:03.260Z,2.70
2018-03-16T17:39:05.985Z,2.73
2018-03-16T17:44:08.567Z,1.80
2018-03-16T17:49:11.146Z,1.50
2018-03-16T17:54:13.718Z,5.70
2018-03-16T17:59:16.274Z,2.13
2018-03-16T18:04:18.843Z,5.67
2018-03-16T18:09:22.168Z,7.90
2018-03-16T18:14:24.694Z,1.67
2018-03-16T18:19:27.227Z,5.90
2018-03-16T18:24:30.530Z,3.20
2018-03-16T18:29:33.081Z,5.13
2018-03-16T18:34:36.025Z,7.53
2018-03-16T18:39:38.599Z,2.90
2018-03-16T18:44:41.912Z,2.90
2018-03-16T18:49:44.478Z,4.60
2018-03-16T18:54:47.058Z,5.07
2018-03-16T18:59:50.363Z,8.50
2018-03-16T19:04:52.942Z,7.33
2018-03-16T19:09:55.495Z,4.63
2018-03-16T19:14:58.076Z,2.87
2018-03-16T19:20:01.413Z,10.90
2018-03-16T19:25:04.748Z,3.00
2018-03-16T19:30:07.327Z,7.20
2018-03-16T19:35:09.880Z,8.87
2018-03-16T19:40:12.724Z,16.00
2018-03-16T19:45:16.031Z,5.57
2018-03-16T19:50:19.351Z,2.83
2018-03-16T19:55:21.906Z,9.90
2018-03-16T20:00:24.463Z,8.77
2018-03-16T20:05:27.021Z,4.30
2018-03-16T20:10:29.595Z,3.60
2018-03-16T20:15:32.143Z,5.43
2018-03-16T20:20:34.954Z,9.00
2018-03-16T20:25:37.509Z,8.97
2018-03-16T20:30:40.068Z,4.43
2018-03-16T20:35:43.420Z,6.27
2018-03-16T20:40:46.037Z,5.67
2018-03-16T20:45:48.523Z,4.53
2018-03-16T20:50:51.120Z,8.97
2018-03-16T20:55:53.695Z,4.63
2018-03-16T21:00:56.242Z,8.80
2018-03-16T21:05:58.813Z,11.73
2018-03-16T21:11:01.383Z,7.60
2018-03-16T21:16:04.790Z,12.60
2018-03-16T21:21:08.127Z,22.43
2018-03-16T21:26:10.665Z,6.60
2018-03-16T21:31:13.257Z,5.30
2018-03-16T21:36:15.759Z,9.20
2018-03-16T21:41:18.555Z,4.33
2018-03-16T21:46:21.508Z,2.60
2018-03-16T21:51:25.129Z,4.13
2018-03-16T21:56:31.066Z,4.20
2018-03-16T22:01:33.661Z,8.87
2018-03-16T22:06:36.219Z,6.40
2018-03-16T22:11:39.542Z,6.30
2018-03-16T22:16:42.860Z,8.20
2018-03-16T22:21:45.462Z,5.40
2018-03-16T22:26:48.768Z,4.00
2018-03-16T22:31:52.926Z,2.33
2018-03-16T22:36:55.500Z,4.47
2018-03-16T22:41:58.038Z,4.07
2018-03-16T22:47:00.588Z,6.77
2018-03-16T22:52:03.166Z,5.03
2018-03-16T22:57:05.718Z,6.13
2018-03-16T23:02:09.034Z,3.67
2018-03-16T23:07:12.355Z,9.33
2018-03-16T23:12:14.924Z,5.10
2018-03-16T23:17:17.522Z,15.70
2018-03-16T23:22:20.106Z,8.50
2018-03-16T23:27:22.694Z,5.37
2018-03-16T23:32:25.309Z,8.73
2018-03-16T23:37:29.063Z,9.07
2018-03-16T23:42:31.636Z,8.10
2018-03-16T23:47:34.431Z,12.83
2018-03-16T23:52:37.042Z,4.33
2018-03-16T23:57:39.600Z,10.30
